< < Back
Terminal Aerodrome Forecast


Current Version              Previous Versions:   1  2  3  4  5  6  7  8  9  

Terminal Aerodrome Forecast

147
FTUS42 KTAE 272340
TAFABY
TAF
KABY 272340Z 2800/2824 09003KT P6SM SCT250
     FM281800 11007KT P6SM FEW045=

Latest METAR

592
SAUS70 KWBC 281200 RRE
MTRABY
METAR KABY 281153Z AUTO 09004KT 10SM CLR 22/19 A3019 RMK AO2 SLP223
T02170194 10222 20200 53014


USA.gov is the U.S. government's official web portal to all federal, state and local government web resources and services.